sensor_id;sensor_type;location;lat;lon;timestamp;temperature;humidity
44271;DHT22;29963;44.594;11.368;2024-01-15T00:00:22;2.00;99.90
44271;DHT22;29963;44.594;11.368;2024-01-15T00:02:47;1.90;99.90
44271;DHT22;29963;44.594;11.368;2024-01-15T00:05:13;1.90;99.90
44271;DHT22;29963;44.594;11.368;2024-01-15T00:07:39;1.80;99.90
44271;DHT22;29963;44.594;11.368;2024-01-15T00:10:04;1.80;99.90
44271;DHT22;29963;44.594;11.368;2024-01-15T00:12:31;1.90;99.90
44271;DHT22;29963;44.594;11.368;2024-01-15T00:14:57;1.90;99.90
44271;DHT22;29963;44.594;11.368;2024-01-15T00:17:22;1.90;99.90
44271;DHT22;29963;44.594;11.368;2024-01-15T00:19:48;2.00;99.90
44271;DHT22;29963;44.594;11.368;2024-01-15T00:22:13;2.00;99.90
44271;DHT22;29963;44.594;11.368;2024-01-15T00:24:39;2.00;99.90
44271;DHT22;29963;44.594;11.368;2024-01-15T00:27:05;2.00;99.90
44271;DHT22;29963;44.594;11.368;2024-01-15T00:29:30;1.90;99.90
44271;DHT22;29963;44.594;11.368;2024-01-15T00:31:56;2.00;99.90
44271;DHT22;29963;44.594;11.368;2024-01-15T00:34:21;2.00;99.90
44271;DHT22;29963;44.594;11.368;2024-01-15T00:36:50;2.00;99.90
44271;DHT22;29963;44.594;11.368;2024-01-15T00:39:15;2.00;99.90
44271;DHT22;29963;44.594;11.368;2024-01-15T00:41:42;1.90;99.90
44271;DHT22;29963;44.594;11.368;2024-01-15T00:44:08;1.90;99.90
44271;DHT22;29963;44.594;11.368;2024-01-15T00:46:33;1.80;99.90
44271;DHT22;29963;44.594;11.368;2024-01-15T00:49:06;1.80;99.90
44271;DHT22;29963;44.594;11.368;2024-01-15T00:51:31;1.80;99.90
44271;DHT22;29963;44.594;11.368;2024-01-15T00:53:57;1.80;99.90
44271;DHT22;29963;44.594;11.368;2024-01-15T00:56:22;1.80;99.90
44271;DHT22;29963;44.594;11.368;2024-01-15T00:58:48;1.80;99.90
44271;DHT22;29963;44.594;11.368;2024-01-15T01:01:14;1.90;99.90
44271;DHT22;29963;44.594;11.368;2024-01-15T01:03:39;1.90;99.90
44271;DHT22;29963;44.594;11.368;2024-01-15T01:06:05;1.80;99.90
44271;DHT22;29963;44.594;11.368;2024-01-15T01:08:30;1.90;99.90
44271;DHT22;29963;44.594;11.368;2024-01-15T01:10:56;1.90;99.90
44271;DHT22;29963;44.594;11.368;2024-01-15T01:13:22;1.90;99.90
44271;DHT22;29963;44.594;11.368;2024-01-15T01:15:48;1.90;99.90
44271;DHT22;29963;44.594;11.368;2024-01-15T01:18:13;2.00;99.90
44271;DHT22;29963;44.594;11.368;2024-01-15T01:20:39;2.00;99.90
44271;DHT22;29963;44.594;11.368;2024-01-15T01:23:04;2.00;99.90
44271;DHT22;29963;44.594;11.368;2024-01-15T01:25:30;2.00;99.90
44271;DHT22;29963;44.594;11.368;2024-01-15T01:27:56;2.00;99.90
44271;DHT22;29963;44.594;11.368;2024-01-15T01:30:21;2.00;99.90
44271;DHT22;29963;44.594;11.368;2024-01-15T01:32:47;1.90;99.90
44271;DHT22;29963;44.594;11.368;2024-01-15T01:35:12;1.90;99.90
44271;DHT22;29963;44.594;11.368;2024-01-15T01:37:38;1.90;99.90
44271;DHT22;29963;44.594;11.368;2024-01-15T01:40:05;1.90;99.90
44271;DHT22;29963;44.594;11.368;2024-01-15T01:42:30;1.90;99.90
44271;DHT22;29963;44.594;11.368;2024-01-15T01:44:56;1.90;99.90
44271;DHT22;29963;44.594;11.368;2024-01-15T01:47:22;1.90;99.90
44271;DHT22;29963;44.594;11.368;2024-01-15T01:49:47;1.90;99.90
44271;DHT22;29963;44.594;11.368;2024-01-15T01:52:14;1.90;99.90
44271;DHT22;29963;44.594;11.368;2024-01-15T01:54:40;1.90;99.90
44271;DHT22;29963;44.594;11.368;2024-01-15T01:57:07;1.90;99.90
44271;DHT22;29963;44.594;11.368;2024-01-15T01:59:34;2.00;99.90
44271;DHT22;29963;44.594;11.368;2024-01-15T02:02:02;2.10;99.90
44271;DHT22;29963;44.594;11.368;2024-01-15T02:04:29;2.10;99.90
44271;DHT22;29963;44.594;11.368;2024-01-15T02:06:56;2.10;99.90
44271;DHT22;29963;44.594;11.368;2024-01-15T02:09:22;2.10;99.90
44271;DHT22;29963;44.594;11.368;2024-01-15T02:11:48;2.20;99.90
44271;DHT22;29963;44.594;11.368;2024-01-15T02:14:14;2.20;99.90
44271;DHT22;29963;44.594;11.368;2024-01-15T02:16:39;2.10;99.90
44271;DHT22;29963;44.594;11.368;2024-01-15T02:19:05;2.10;99.90
44271;DHT22;29963;44.594;11.368;2024-01-15T02:21:34;2.10;99.90
44271;DHT22;29963;44.594;11.368;2024-01-15T02:23:59;2.10;99.90
44271;DHT22;29963;44.594;11.368;2024-01-15T02:26:25;2.10;99.90
44271;DHT22;29963;44.594;11.368;2024-01-15T02:28:51;2.10;99.90
44271;DHT22;29963;44.594;11.368;2024-01-15T02:31:17;2.10;99.90
44271;DHT22;29963;44.594;11.368;2024-01-15T02:33:43;2.10;99.90
44271;DHT22;29963;44.594;11.368;2024-01-15T02:36:11;2.10;99.90
44271;DHT22;29963;44.594;11.368;2024-01-15T02:38:37;2.10;99.90
44271;DHT22;29963;44.594;11.368;2024-01-15T02:41:02;2.10;99.90
44271;DHT22;29963;44.594;11.368;2024-01-15T02:43:28;2.10;99.90
44271;DHT22;29963;44.594;11.368;2024-01-15T02:45:54;2.10;99.90
44271;DHT22;29963;44.594;11.368;2024-01-15T02:48:19;2.10;99.90
44271;DHT22;29963;44.594;11.368;2024-01-15T02:50:45;2.10;99.90
44271;DHT22;29963;44.594;11.368;2024-01-15T02:53:10;2.10;99.90
44271;DHT22;29963;44.594;11.368;2024-01-15T02:55:36;2.10;99.90
44271;DHT22;29963;44.594;11.368;2024-01-15T02:58:01;2.00;99.90
44271;DHT22;29963;44.594;11.368;2024-01-15T03:00:27;2.00;99.90
44271;DHT22;29963;44.594;11.368;2024-01-15T03:02:56;2.00;99.90
44271;DHT22;29963;44.594;11.368;2024-01-15T03:05:21;2.00;99.90
44271;DHT22;29963;44.594;11.368;2024-01-15T03:07:47;2.00;99.90
44271;DHT22;29963;44.594;11.368;2024-01-15T03:10:13;2.00;99.90
44271;DHT22;29963;44.594;11.368;2024-01-15T03:12:38;2.00;99.90
44271;DHT22;29963;44.594;11.368;2024-01-15T03:15:05;2.00;99.90
44271;DHT22;29963;44.594;11.368;2024-01-15T03:17:30;2.00;99.90
44271;DHT22;29963;44.594;11.368;2024-01-15T03:19:56;2.00;99.90
44271;DHT22;29963;44.594;11.368;2024-01-15T03:22:21;2.10;99.90
44271;DHT22;29963;44.594;11.368;2024-01-15T03:24:47;2.00;99.90
44271;DHT22;29963;44.594;11.368;2024-01-15T03:27:12;2.00;99.90
44271;DHT22;29963;44.594;11.368;2024-01-15T03:29:39;2.10;99.90
44271;DHT22;29963;44.594;11.368;2024-01-15T03:32:05;2.00;99.90
44271;DHT22;29963;44.594;11.368;2024-01-15T03:34:31;2.00;99.90
44271;DHT22;29963;44.594;11.368;2024-01-15T03:36:56;2.10;99.90
44271;DHT22;29963;44.594;11.368;2024-01-15T03:39:22;2.10;99.90
44271;DHT22;29963;44.594;11.368;2024-01-15T03:41:47;2.10;99.90
44271;DHT22;29963;44.594;11.368;2024-01-15T03:44:13;2.00;99.90
44271;DHT22;29963;44.594;11.368;2024-01-15T03:46:39;2.10;99.90
44271;DHT22;29963;44.594;11.368;2024-01-15T03:49:04;2.10;99.90
44271;DHT22;29963;44.594;11.368;2024-01-15T03:51:30;2.20;99.90
44271;DHT22;29963;44.594;11.368;2024-01-15T03:53:55;2.20;99.90
44271;DHT22;29963;44.594;11.368;2024-01-15T03:56:21;2.20;99.90
44271;DHT22;29963;44.594;11.368;2024-01-15T03:58:46;2.20;99.90
44271;DHT22;29963;44.594;11.368;2024-01-15T04:01:12;2.20;99.90
44271;DHT22;29963;44.594;11.368;2024-01-15T04:03:38;2.20;99.90
44271;DHT22;29963;44.594;11.368;2024-01-15T04:06:04;2.20;99.90
44271;DHT22;29963;44.594;11.368;2024-01-15T04:08:30;2.20;99.90
44271;DHT22;29963;44.594;11.368;2024-01-15T04:10:55;2.20;99.90
44271;DHT22;29963;44.594;11.368;2024-01-15T04:13:21;2.10;99.90
44271;DHT22;29963;44.594;11.368;2024-01-15T04:15:47;2.10;99.90
44271;DHT22;29963;44.594;11.368;2024-01-15T04:18:13;2.10;99.90
44271;DHT22;29963;44.594;11.368;2024-01-15T04:20:38;2.10;99.90
44271;DHT22;29963;44.594;11.368;2024-01-15T04:23:04;2.10;99.90
44271;DHT22;29963;44.594;11.368;2024-01-15T04:25:30;2.10;99.90
44271;DHT22;29963;44.594;11.368;2024-01-15T04:27:56;2.20;99.90
44271;DHT22;29963;44.594;11.368;2024-01-15T04:30:21;2.20;99.90
44271;DHT22;29963;44.594;11.368;2024-01-15T04:32:47;2.20;99.90
44271;DHT22;29963;44.594;11.368;2024-01-15T04:35:13;2.30;99.90
44271;DHT22;29963;44.594;11.368;2024-01-15T04:37:39;2.20;99.90
44271;DHT22;29963;44.594;11.368;2024-01-15T04:40:06;2.30;99.90
44271;DHT22;29963;44.594;11.368;2024-01-15T04:42:31;2.30;99.90
44271;DHT22;29963;44.594;11.368;2024-01-15T04:44:57;2.30;99.90
44271;DHT22;29963;44.594;11.368;2024-01-15T04:47:23;2.30;99.90
44271;DHT22;29963;44.594;11.368;2024-01-15T04:49:48;2.30;99.90
44271;DHT22;29963;44.594;11.368;2024-01-15T04:52:14;2.30;99.90
44271;DHT22;29963;44.594;11.368;2024-01-15T04:54:40;2.30;99.90
44271;DHT22;29963;44.594;11.368;2024-01-15T04:57:06;2.40;99.90
44271;DHT22;29963;44.594;11.368;2024-01-15T04:59:31;2.20;99.90
44271;DHT22;29963;44.594;11.368;2024-01-15T05:01:57;2.40;99.90
44271;DHT22;29963;44.594;11.368;2024-01-15T05:04:23;2.40;99.90
44271;DHT22;29963;44.594;11.368;2024-01-15T05:06:50;2.30;99.90
44271;DHT22;29963;44.594;11.368;2024-01-15T05:09:15;2.20;99.90
44271;DHT22;29963;44.594;11.368;2024-01-15T05:11:41;2.30;99.90
44271;DHT22;29963;44.594;11.368;2024-01-15T05:14:07;2.40;99.90
44271;DHT22;29963;44.594;11.368;2024-01-15T05:16:32;2.40;99.90
44271;DHT22;29963;44.594;11.368;2024-01-15T05:18:58;2.50;99.90
44271;DHT22;29963;44.594;11.368;2024-01-15T05:21:23;2.60;99.90
44271;DHT22;29963;44.594;11.368;2024-01-15T05:23:49;2.70;99.90
44271;DHT22;29963;44.594;11.368;2024-01-15T05:26:15;2.80;99.90
44271;DHT22;29963;44.594;11.368;2024-01-15T05:28:43;2.70;99.90
44271;DHT22;29963;44.594;11.368;2024-01-15T05:31:09;2.70;99.90
44271;DHT22;29963;44.594;11.368;2024-01-15T05:33:35;2.70;99.90
44271;DHT22;29963;44.594;11.368;2024-01-15T05:36:00;2.60;99.90
44271;DHT22;29963;44.594;11.368;2024-01-15T05:38:27;2.60;99.90
44271;DHT22;29963;44.594;11.368;2024-01-15T05:40:53;2.60;99.90
44271;DHT22;29963;44.594;11.368;2024-01-15T05:43:18;2.60;99.90
44271;DHT22;29963;44.594;11.368;2024-01-15T05:45:44;2.60;99.90
44271;DHT22;29963;44.594;11.368;2024-01-15T05:48:10;2.60;99.90
44271;DHT22;29963;44.594;11.368;2024-01-15T05:50:39;2.50;99.90
44271;DHT22;29963;44.594;11.368;2024-01-15T05:53:05;2.50;99.90
44271;DHT22;29963;44.594;11.368;2024-01-15T05:55:30;2.60;99.90
44271;DHT22;29963;44.594;11.368;2024-01-15T05:57:56;2.60;99.90
44271;DHT22;29963;44.594;11.368;2024-01-15T06:00:24;2.60;99.90
44271;DHT22;29963;44.594;11.368;2024-01-15T06:02:50;2.60;99.90
44271;DHT22;29963;44.594;11.368;2024-01-15T06:05:15;2.70;99.90
44271;DHT22;29963;44.594;11.368;2024-01-15T06:07:41;2.80;99.90
44271;DHT22;29963;44.594;11.368;2024-01-15T06:10:07;2.90;99.90
44271;DHT22;29963;44.594;11.368;2024-01-15T06:12:33;2.90;99.90
44271;DHT22;29963;44.594;11.368;2024-01-15T06:14:59;2.90;99.90
44271;DHT22;29963;44.594;11.368;2024-01-15T06:17:24;2.90;99.90
44271;DHT22;29963;44.594;11.368;2024-01-15T06:19:50;3.00;99.90
44271;DHT22;29963;44.594;11.368;2024-01-15T06:22:16;2.90;99.90
44271;DHT22;29963;44.594;11.368;2024-01-15T06:24:41;2.90;99.90
44271;DHT22;29963;44.594;11.368;2024-01-15T06:27:07;2.90;99.90
44271;DHT22;29963;44.594;11.368;2024-01-15T06:29:38;2.90;99.90
44271;DHT22;29963;44.594;11.368;2024-01-15T06:32:04;2.90;99.90
44271;DHT22;29963;44.594;11.368;2024-01-15T06:34:30;2.90;99.90
44271;DHT22;29963;44.594;11.368;2024-01-15T06:36:55;2.90;99.90
44271;DHT22;29963;44.594;11.368;2024-01-15T06:39:21;2.80;99.90
44271;DHT22;29963;44.594;11.368;2024-01-15T06:41:46;2.80;99.90
44271;DHT22;29963;44.594;11.368;2024-01-15T06:44:12;2.80;99.90
44271;DHT22;29963;44.594;11.368;2024-01-15T06:46:45;2.80;99.90
44271;DHT22;29963;44.594;11.368;2024-01-15T06:49:10;2.80;99.90
44271;DHT22;29963;44.594;11.368;2024-01-15T06:51:36;2.80;99.90
44271;DHT22;29963;44.594;11.368;2024-01-15T06:54:02;2.80;99.90
44271;DHT22;29963;44.594;11.368;2024-01-15T06:56:28;2.80;99.90
44271;DHT22;29963;44.594;11.368;2024-01-15T06:58:56;2.80;99.90
44271;DHT22;29963;44.594;11.368;2024-01-15T07:01:22;2.80;99.90
44271;DHT22;29963;44.594;11.368;2024-01-15T07:03:48;2.80;99.90
44271;DHT22;29963;44.594;11.368;2024-01-15T07:06:13;2.80;99.90
44271;DHT22;29963;44.594;11.368;2024-01-15T07:08:40;2.90;99.90
44271;DHT22;29963;44.594;11.368;2024-01-15T07:11:05;2.90;99.90
44271;DHT22;29963;44.594;11.368;2024-01-15T07:13:32;2.90;99.90
44271;DHT22;29963;44.594;11.368;2024-01-15T07:15:57;2.90;99.90
44271;DHT22;29963;44.594;11.368;2024-01-15T07:18:23;2.90;99.90
44271;DHT22;29963;44.594;11.368;2024-01-15T07:20:49;2.90;99.90
44271;DHT22;29963;44.594;11.368;2024-01-15T07:23:15;2.90;99.90
44271;DHT22;29963;44.594;11.368;2024-01-15T07:25:40;2.80;99.90
44271;DHT22;29963;44.594;11.368;2024-01-15T07:28:06;2.80;99.90
44271;DHT22;29963;44.594;11.368;2024-01-15T07:30:32;2.80;99.90
44271;DHT22;29963;44.594;11.368;2024-01-15T07:32:57;2.80;99.90
44271;DHT22;29963;44.594;11.368;2024-01-15T07:35:24;2.80;99.90
44271;DHT22;29963;44.594;11.368;2024-01-15T07:37:50;2.80;99.90
44271;DHT22;29963;44.594;11.368;2024-01-15T07:40:16;2.80;99.90
44271;DHT22;29963;44.594;11.368;2024-01-15T07:42:41;2.70;99.90
44271;DHT22;29963;44.594;11.368;2024-01-15T07:45:08;2.70;99.90
44271;DHT22;29963;44.594;11.368;2024-01-15T07:47:34;2.80;99.90
44271;DHT22;29963;44.594;11.368;2024-01-15T07:50:00;2.80;99.90
44271;DHT22;29963;44.594;11.368;2024-01-15T07:52:25;2.90;99.90
44271;DHT22;29963;44.594;11.368;2024-01-15T07:54:51;3.00;99.90
44271;DHT22;29963;44.594;11.368;2024-01-15T07:57:17;3.00;99.90
44271;DHT22;29963;44.594;11.368;2024-01-15T07:59:42;3.00;99.90
44271;DHT22;29963;44.594;11.368;2024-01-15T08:02:08;3.10;99.90
44271;DHT22;29963;44.594;11.368;2024-01-15T08:04:34;3.10;99.90
44271;DHT22;29963;44.594;11.368;2024-01-15T08:06:59;3.20;99.90
44271;DHT22;29963;44.594;11.368;2024-01-15T08:09:25;3.10;99.90
44271;DHT22;29963;44.594;11.368;2024-01-15T08:11:50;3.00;99.90
44271;DHT22;29963;44.594;11.368;2024-01-15T08:14:16;3.10;99.90
44271;DHT22;29963;44.594;11.368;2024-01-15T08:16:41;3.10;99.90
44271;DHT22;29963;44.594;11.368;2024-01-15T08:19:10;3.20;99.90
44271;DHT22;29963;44.594;11.368;2024-01-15T08:21:35;3.30;99.90
44271;DHT22;29963;44.594;11.368;2024-01-15T08:24:02;3.40;99.90
44271;DHT22;29963;44.594;11.368;2024-01-15T08:26:28;3.50;99.90
44271;DHT22;29963;44.594;11.368;2024-01-15T08:28:54;3.50;99.90
44271;DHT22;29963;44.594;11.368;2024-01-15T08:31:20;3.50;99.90
44271;DHT22;29963;44.594;11.368;2024-01-15T08:33:45;3.60;99.90
44271;DHT22;29963;44.594;11.368;2024-01-15T08:36:11;3.60;99.90
44271;DHT22;29963;44.594;11.368;2024-01-15T08:38:37;3.70;99.90
44271;DHT22;29963;44.594;11.368;2024-01-15T08:41:02;3.70;99.90
44271;DHT22;29963;44.594;11.368;2024-01-15T08:43:28;3.80;99.90
44271;DHT22;29963;44.594;11.368;2024-01-15T08:45:55;3.80;99.90
44271;DHT22;29963;44.594;11.368;2024-01-15T08:48:20;3.80;99.90
44271;DHT22;29963;44.594;11.368;2024-01-15T08:50:46;3.90;99.90
44271;DHT22;29963;44.594;11.368;2024-01-15T08:53:12;3.90;99.90
44271;DHT22;29963;44.594;11.368;2024-01-15T08:55:38;3.90;99.90
44271;DHT22;29963;44.594;11.368;2024-01-15T08:58:04;4.00;99.90
44271;DHT22;29963;44.594;11.368;2024-01-15T09:00:29;4.00;99.90
44271;DHT22;29963;44.594;11.368;2024-01-15T09:02:56;4.00;99.90
44271;DHT22;29963;44.594;11.368;2024-01-15T09:05:22;4.10;99.90
44271;DHT22;29963;44.594;11.368;2024-01-15T09:07:48;4.10;99.90
44271;DHT22;29963;44.594;11.368;2024-01-15T09:10:14;4.20;99.90
44271;DHT22;29963;44.594;11.368;2024-01-15T09:12:40;4.30;99.90
44271;DHT22;29963;44.594;11.368;2024-01-15T09:15:06;4.30;99.90
44271;DHT22;29963;44.594;11.368;2024-01-15T09:17:32;4.40;99.90
44271;DHT22;29963;44.594;11.368;2024-01-15T09:19:58;4.40;99.90
44271;DHT22;29963;44.594;11.368;2024-01-15T09:22:23;4.40;99.90
44271;DHT22;29963;44.594;11.368;2024-01-15T09:24:49;4.40;99.90
44271;DHT22;29963;44.594;11.368;2024-01-15T09:27:14;4.50;99.90
44271;DHT22;29963;44.594;11.368;2024-01-15T09:29:41;4.50;99.90
44271;DHT22;29963;44.594;11.368;2024-01-15T09:32:08;4.60;99.90
44271;DHT22;29963;44.594;11.368;2024-01-15T09:34:34;4.60;99.90
44271;DHT22;29963;44.594;11.368;2024-01-15T09:36:59;4.60;99.90
44271;DHT22;29963;44.594;11.368;2024-01-15T09:39:26;4.70;99.90
44271;DHT22;29963;44.594;11.368;2024-01-15T09:41:53;4.70;99.90
44271;DHT22;29963;44.594;11.368;2024-01-15T09:44:19;4.70;99.90
44271;DHT22;29963;44.594;11.368;2024-01-15T09:46:46;4.70;99.90
44271;DHT22;29963;44.594;11.368;2024-01-15T09:49:12;4.80;99.90
44271;DHT22;29963;44.594;11.368;2024-01-15T09:51:38;4.90;99.90
44271;DHT22;29963;44.594;11.368;2024-01-15T09:54:05;4.90;99.90
44271;DHT22;29963;44.594;11.368;2024-01-15T09:56:31;5.00;99.90
44271;DHT22;29963;44.594;11.368;2024-01-15T09:58:57;5.00;99.90
44271;DHT22;29963;44.594;11.368;2024-01-15T10:01:23;5.10;99.90
44271;DHT22;29963;44.594;11.368;2024-01-15T10:03:50;5.10;99.90
44271;DHT22;29963;44.594;11.368;2024-01-15T10:06:17;5.10;99.90
44271;DHT22;29963;44.594;11.368;2024-01-15T10:08:48;5.20;99.90
44271;DHT22;29963;44.594;11.368;2024-01-15T10:11:13;5.30;99.90
44271;DHT22;29963;44.594;11.368;2024-01-15T10:13:39;5.20;99.90
44271;DHT22;29963;44.594;11.368;2024-01-15T10:16:05;5.30;99.90
44271;DHT22;29963;44.594;11.368;2024-01-15T10:18:31;5.30;99.90
44271;DHT22;29963;44.594;11.368;2024-01-15T10:20:57;5.40;99.90
44271;DHT22;29963;44.594;11.368;2024-01-15T10:23:26;5.50;99.90
44271;DHT22;29963;44.594;11.368;2024-01-15T10:25:52;5.50;99.90
44271;DHT22;29963;44.594;11.368;2024-01-15T10:28:19;5.40;99.90
44271;DHT22;29963;44.594;11.368;2024-01-15T10:30:45;5.40;99.90
44271;DHT22;29963;44.594;11.368;2024-01-15T10:33:10;5.50;99.90
44271;DHT22;29963;44.594;11.368;2024-01-15T10:35:38;5.60;99.90
44271;DHT22;29963;44.594;11.368;2024-01-15T10:38:05;5.50;99.90
44271;DHT22;29963;44.594;11.368;2024-01-15T10:40:31;5.50;99.90
44271;DHT22;29963;44.594;11.368;2024-01-15T10:42:57;5.50;99.90
44271;DHT22;29963;44.594;11.368;2024-01-15T10:45:23;5.60;99.90
44271;DHT22;29963;44.594;11.368;2024-01-15T10:47:49;5.50;99.90
44271;DHT22;29963;44.594;11.368;2024-01-15T10:50:15;5.50;99.90
44271;DHT22;29963;44.594;11.368;2024-01-15T10:52:41;5.50;99.90
44271;DHT22;29963;44.594;11.368;2024-01-15T10:55:09;5.60;99.90
44271;DHT22;29963;44.594;11.368;2024-01-15T10:57:36;5.70;99.90
44271;DHT22;29963;44.594;11.368;2024-01-15T11:00:02;5.80;99.90
44271;DHT22;29963;44.594;11.368;2024-01-15T11:02:34;5.80;99.90
44271;DHT22;29963;44.594;11.368;2024-01-15T11:05:00;5.80;99.90
44271;DHT22;29963;44.594;11.368;2024-01-15T11:07:26;5.90;99.90
44271;DHT22;29963;44.594;11.368;2024-01-15T11:09:52;6.00;99.90
44271;DHT22;29963;44.594;11.368;2024-01-15T11:12:18;6.10;99.90
44271;DHT22;29963;44.594;11.368;2024-01-15T11:14:48;6.20;99.90
44271;DHT22;29963;44.594;11.368;2024-01-15T11:17:15;6.20;99.90
44271;DHT22;29963;44.594;11.368;2024-01-15T11:19:50;6.30;99.90
44271;DHT22;29963;44.594;11.368;2024-01-15T11:25:15;6.30;99.90
44271;DHT22;29963;44.594;11.368;2024-01-15T11:27:47;6.40;99.90
44271;DHT22;29963;44.594;11.368;2024-01-15T11:30:16;6.40;99.90
44271;DHT22;29963;44.594;11.368;2024-01-15T11:32:42;6.50;99.90
44271;DHT22;29963;44.594;11.368;2024-01-15T11:35:09;6.60;99.90
44271;DHT22;29963;44.594;11.368;2024-01-15T11:40:35;6.80;99.90
44271;DHT22;29963;44.594;11.368;2024-01-15T11:43:04;6.90;99.90
44271;DHT22;29963;44.594;11.368;2024-01-15T11:45:30;6.90;99.90
44271;DHT22;29963;44.594;11.368;2024-01-15T11:48:13;7.00;99.90
44271;DHT22;29963;44.594;11.368;2024-01-15T11:50:42;7.10;99.90
44271;DHT22;29963;44.594;11.368;2024-01-15T11:53:48;7.10;99.90
44271;DHT22;29963;44.594;11.368;2024-01-15T11:56:17;7.10;99.90
44271;DHT22;29963;44.594;11.368;2024-01-15T11:58:43;7.20;99.90
44271;DHT22;29963;44.594;11.368;2024-01-15T12:01:10;7.20;99.90
44271;DHT22;29963;44.594;11.368;2024-01-15T12:03:36;7.30;99.90
44271;DHT22;29963;44.594;11.368;2024-01-15T12:06:04;7.30;99.90
44271;DHT22;29963;44.594;11.368;2024-01-15T12:08:30;7.30;99.90
44271;DHT22;29963;44.594;11.368;2024-01-15T12:10:56;7.30;99.90
44271;DHT22;29963;44.594;11.368;2024-01-15T12:13:22;7.40;99.90
44271;DHT22;29963;44.594;11.368;2024-01-15T12:15:48;7.50;99.90
44271;DHT22;29963;44.594;11.368;2024-01-15T12:18:15;7.60;99.90
44271;DHT22;29963;44.594;11.368;2024-01-15T12:20:42;7.50;99.90
44271;DHT22;29963;44.594;11.368;2024-01-15T12:23:09;7.50;99.90
44271;DHT22;29963;44.594;11.368;2024-01-15T12:25:35;7.60;99.90
44271;DHT22;29963;44.594;11.368;2024-01-15T12:28:05;7.60;99.90
44271;DHT22;29963;44.594;11.368;2024-01-15T12:30:31;7.70;99.90
44271;DHT22;29963;44.594;11.368;2024-01-15T12:32:58;7.80;99.90
44271;DHT22;29963;44.594;11.368;2024-01-15T12:35:26;7.80;99.90
44271;DHT22;29963;44.594;11.368;2024-01-15T12:37:51;7.80;99.90
44271;DHT22;29963;44.594;11.368;2024-01-15T12:40:20;7.90;99.90
44271;DHT22;29963;44.594;11.368;2024-01-15T12:42:47;8.00;99.90
44271;DHT22;29963;44.594;11.368;2024-01-15T12:45:15;8.00;99.90
44271;DHT22;29963;44.594;11.368;2024-01-15T12:47:42;8.10;99.90
44271;DHT22;29963;44.594;11.368;2024-01-15T12:50:09;8.10;99.90
44271;DHT22;29963;44.594;11.368;2024-01-15T12:52:35;8.20;99.90
44271;DHT22;29963;44.594;11.368;2024-01-15T12:55:06;8.20;99.90
44271;DHT22;29963;44.594;11.368;2024-01-15T12:57:32;8.20;99.90
44271;DHT22;29963;44.594;11.368;2024-01-15T12:59:58;8.30;99.90
44271;DHT22;29963;44.594;11.368;2024-01-15T13:02:24;8.40;99.90
44271;DHT22;29963;44.594;11.368;2024-01-15T13:04:49;8.50;99.90
44271;DHT22;29963;44.594;11.368;2024-01-15T13:07:18;8.60;99.90
44271;DHT22;29963;44.594;11.368;2024-01-15T13:09:43;8.70;99.90
44271;DHT22;29963;44.594;11.368;2024-01-15T13:12:09;8.90;99.90
44271;DHT22;29963;44.594;11.368;2024-01-15T13:14:35;9.00;99.90
44271;DHT22;29963;44.594;11.368;2024-01-15T13:17:02;9.10;99.90
44271;DHT22;29963;44.594;11.368;2024-01-15T13:19:28;9.20;99.90
44271;DHT22;29963;44.594;11.368;2024-01-15T13:21:54;9.30;99.90
44271;DHT22;29963;44.594;11.368;2024-01-15T13:24:21;9.30;99.90
44271;DHT22;29963;44.594;11.368;2024-01-15T13:26:47;9.40;99.90
44271;DHT22;29963;44.594;11.368;2024-01-15T13:29:13;9.50;99.90
44271;DHT22;29963;44.594;11.368;2024-01-15T13:31:39;9.70;99.90
44271;DHT22;29963;44.594;11.368;2024-01-15T13:34:04;9.80;99.90
44271;DHT22;29963;44.594;11.368;2024-01-15T13:36:30;10.00;99.90
44271;DHT22;29963;44.594;11.368;2024-01-15T13:38:56;10.10;99.90
44271;DHT22;29963;44.594;11.368;2024-01-15T13:41:22;10.20;99.90
44271;DHT22;29963;44.594;11.368;2024-01-15T13:43:50;10.30;99.90
44271;DHT22;29963;44.594;11.368;2024-01-15T13:46:28;10.40;99.90
44271;DHT22;29963;44.594;11.368;2024-01-15T13:48:55;10.50;99.90
44271;DHT22;29963;44.594;11.368;2024-01-15T13:51:24;10.60;99.90
44271;DHT22;29963;44.594;11.368;2024-01-15T13:53:50;10.80;99.90
44271;DHT22;29963;44.594;11.368;2024-01-15T13:56:16;10.90;99.90
44271;DHT22;29963;44.594;11.368;2024-01-15T13:58:42;11.10;99.90
44271;DHT22;29963;44.594;11.368;2024-01-15T14:01:08;11.20;99.90
44271;DHT22;29963;44.594;11.368;2024-01-15T14:03:34;11.90;99.90
44271;DHT22;29963;44.594;11.368;2024-01-15T14:06:00;13.20;99.90
44271;DHT22;29963;44.594;11.368;2024-01-15T14:08:28;14.90;99.90
44271;DHT22;29963;44.594;11.368;2024-01-15T14:10:54;16.40;99.90
44271;DHT22;29963;44.594;11.368;2024-01-15T14:13:21;17.50;99.90
44271;DHT22;29963;44.594;11.368;2024-01-15T14:15:47;18.40;99.90
44271;DHT22;29963;44.594;11.368;2024-01-15T14:18:16;18.90;99.90
44271;DHT22;29963;44.594;11.368;2024-01-15T14:20:41;19.00;99.90
44271;DHT22;29963;44.594;11.368;2024-01-15T14:23:07;19.10;99.90
44271;DHT22;29963;44.594;11.368;2024-01-15T14:25:32;19.20;99.90
44271;DHT22;29963;44.594;11.368;2024-01-15T14:27:58;19.30;99.90
44271;DHT22;29963;44.594;11.368;2024-01-15T14:30:24;19.00;99.80
44271;DHT22;29963;44.594;11.368;2024-01-15T14:32:49;19.10;99.80
44271;DHT22;29963;44.594;11.368;2024-01-15T14:35:15;19.20;99.70
44271;DHT22;29963;44.594;11.368;2024-01-15T14:37:40;19.30;99.50
44271;DHT22;29963;44.594;11.368;2024-01-15T14:40:06;19.40;99.50
44271;DHT22;29963;44.594;11.368;2024-01-15T14:42:41;19.40;99.40
44271;DHT22;29963;44.594;11.368;2024-01-15T14:45:07;19.40;99.10
44271;DHT22;29963;44.594;11.368;2024-01-15T14:47:39;19.60;98.90
44271;DHT22;29963;44.594;11.368;2024-01-15T14:50:09;19.60;98.60
44271;DHT22;29963;44.594;11.368;2024-01-15T14:52:36;19.60;98.40
44271;DHT22;29963;44.594;11.368;2024-01-15T14:55:02;19.30;98.60
44271;DHT22;29963;44.594;11.368;2024-01-15T14:57:27;19.20;98.40
44271;DHT22;29963;44.594;11.368;2024-01-15T14:59:53;19.10;98.70
44271;DHT22;29963;44.594;11.368;2024-01-15T15:02:19;18.90;99.00
44271;DHT22;29963;44.594;11.368;2024-01-15T15:04:45;18.60;99.20
44271;DHT22;29963;44.594;11.368;2024-01-15T15:07:11;18.40;99.90
44271;DHT22;29963;44.594;11.368;2024-01-15T15:09:36;18.10;99.90
44271;DHT22;29963;44.594;11.368;2024-01-15T15:12:05;17.80;99.90
44271;DHT22;29963;44.594;11.368;2024-01-15T15:14:34;17.30;99.90
44271;DHT22;29963;44.594;11.368;2024-01-15T15:17:04;16.90;99.90
44271;DHT22;29963;44.594;11.368;2024-01-15T15:19:30;16.50;99.90
44271;DHT22;29963;44.594;11.368;2024-01-15T15:21:56;16.10;99.90
44271;DHT22;29963;44.594;11.368;2024-01-15T15:24:23;15.80;99.90
44271;DHT22;29963;44.594;11.368;2024-01-15T15:26:48;15.60;99.90
44271;DHT22;29963;44.594;11.368;2024-01-15T15:29:14;15.20;99.90